Terminal Aerodrome Forecast
Issued by NWS

Home | Current Version | Previous Version | Text Only | Print | Product List | Glossary On
Versions: 1 2 3 4 5 6 7 8 9 10 11 12 13 14 15 16 17 18 19 20 21 22 23 24 25 26 27 28 29 30 31 32
000
FTUS41 KCTP 281734
TAFJST
TAF
KJST 281734Z 2818/2918 07004KT P6SM VCTS BKN025CB
      TEMPO 2818/2820 2SM -SHRA OVC020
     FM282000 08006KT 3SM -SHRA BR VCTS OVC025CB
     FM290000 04008KT 4SM -SHRA BR OVC012
     FM290600 36009KT 2SM -SHRA BR VCTS OVC009CB
     FM291400 01009G16KT 6SM -SHRA BR OVC025=

USA.gov is the U.S. government's official web portal to all federal, state and local government web resources and services.